Time,TemperatureF,DewpointF,PressureIn,WindDirection,WindDirectionDegrees,WindSpeedMPH,WindSpeedGustMPH,Humidity,HourlyPrecipIn,Conditions,Clouds,dailyrainin,SolarRadiationWatts/m^2,SoftwareType,DateUTC
2013-08-30 00:01:00,78.4,70.2,29.89,West,281,0.0,0.0,76,0.00,BKN,,0.00,0.0,WeatherDisplay:10.37,2013-08-30 05:01:00,
2013-08-30 00:06:00,78.3,70.9,29.89,West,281,0.0,0.0,78,0.00,BKN,,0.00,0.0,WeatherDisplay:10.37,2013-08-30 05:06:00,
2013-08-30 00:11:00,78.3,71.2,29.89,West,281,0.0,0.0,79,0.00,BKN,,0.00,0.0,WeatherDisplay:10.37,2013-08-30 05:11:00,
2013-08-30 00:16:00,78.1,71.1,29.89,West,281,0.0,0.0,79,0.00,BKN,,0.00,0.0,WeatherDisplay:10.37,2013-08-30 05:16:00,
2013-08-30 00:21:00,78.0,70.2,29.89,West,281,0.0,1.2,77,0.00,BKN,,0.00,0.0,WeatherDisplay:10.37,2013-08-30 05:21:00,
2013-08-30 00:26:00,77.8,70.4,29.90,West,281,0.0,0.0,78,0.00,BKN,,0.00,0.0,WeatherDisplay:10.37,2013-08-30 05:26:00,
2013-08-30 00:31:00,77.6,70.6,29.90,West,281,0.1,1.2,79,0.00,BKN,,0.00,0.0,WeatherDisplay:10.37,2013-08-30 05:31:00,
2013-08-30 00:36:00,77.4,70.4,29.90,West,281,0.0,3.0,79,0.00,BKN,,0.00,0.0,WeatherDisplay:10.37,2013-08-30 05:36:00,
2013-08-30 00:41:00,77.2,70.2,29.90,West,281,1.0,2.0,79,0.00,BKN,,0.00,0.0,WeatherDisplay:10.37,2013-08-30 05:41:00,
2013-08-30 00:46:00,77.0,70.4,29.90,WNW,283,0.8,3.5,80,0.00,BKN,,0.00,0.0,WeatherDisplay:10.37,2013-08-30 05:46:00,
2013-08-30 00:51:00,76.9,70.3,29.90,WNW,284,0.1,1.2,80,0.00,BKN,,0.00,0.0,WeatherDisplay:10.37,2013-08-30 05:51:00,
2013-08-30 00:56:00,76.7,70.4,29.90,WNW,284,0.1,1.2,81,0.00,BKN,,0.00,0.0,WeatherDisplay:10.37,2013-08-30 05:56:00,
2013-08-30 01:01:00,76.5,70.2,29.90,WNW,284,0.5,2.3,81,0.00,BKN,,0.00,0.0,WeatherDisplay:10.37,2013-08-30 06:01:00,
2013-08-30 01:06:00,76.4,70.5,29.90,WNW,284,0.1,1.2,82,0.00,CLR,,0.00,0.0,WeatherDisplay:10.37,2013-08-30 06:06:00,
2013-08-30 01:11:00,76.3,70.8,29.90,WNW,285,0.2,1.2,83,0.00,CLR,,0.00,0.0,WeatherDisplay:10.37,2013-08-30 06:11:00,
2013-08-30 01:16:00,76.2,70.7,29.90,North,355,0.6,2.3,83,0.00,CLR,,0.00,0.0,WeatherDisplay:10.37,2013-08-30 06:16:00,
2013-08-30 01:21:00,76.2,70.7,29.90,NW,322,0.5,2.0,83,0.00,CLR,,0.00,0.0,WeatherDisplay:10.37,2013-08-30 06:21:00,
2013-08-30 01:26:00,76.2,70.7,29.90,NNW,328,1.6,4.0,83,0.00,CLR,,0.00,0.0,WeatherDisplay:10.37,2013-08-30 06:26:00,
2013-08-30 01:31:00,76.1,70.9,29.90,NNW,334,1.2,4.0,84,0.00,CLR,,0.00,0.0,WeatherDisplay:10.37,2013-08-30 06:31:00,
2013-08-30 01:36:00,76.0,71.2,29.90,NW,325,2.8,5.0,85,0.00,CLR,,0.00,0.0,WeatherDisplay:10.37,2013-08-30 06:36:00,
2013-08-30 01:41:00,76.0,71.2,29.91,NNE,28,2.9,4.0,85,0.00,CLR,,0.00,0.0,WeatherDisplay:10.37,2013-08-30 06:41:00,
2013-08-30 01:46:00,75.9,71.4,29.91,North,355,1.9,4.0,86,0.00,CLR,,0.00,0.0,WeatherDisplay:10.37,2013-08-30 06:46:00,
2013-08-30 01:51:00,75.8,71.3,29.91,North,350,2.4,5.0,86,0.00,CLR,,0.00,0.0,WeatherDisplay:10.37,2013-08-30 06:51:00,
2013-08-30 01:56:00,75.7,71.6,29.91,North,5,4.3,7.0,87,0.00,CLR,,0.00,0.0,WeatherDisplay:10.37,2013-08-30 06:56:00,
2013-08-30 02:01:00,75.6,71.5,29.91,NW,324,2.4,6.0,87,0.00,CLR,,0.00,0.0,WeatherDisplay:10.37,2013-08-30 07:01:00,
2013-08-30 02:06:00,75.5,71.4,29.91,NW,323,1.6,8.1,87,0.00,CLR,,0.00,0.0,WeatherDisplay:10.37,2013-08-30 07:06:00,
2013-08-30 02:11:00,75.4,71.3,29.91,North,360,2.7,4.0,87,0.00,CLR,,0.00,0.0,WeatherDisplay:10.37,2013-08-30 07:11:00,
2013-08-30 02:16:00,75.1,71.0,29.91,North,360,1.5,4.0,87,0.00,CLR,,0.00,0.0,WeatherDisplay:10.37,2013-08-30 07:16:00,
2013-08-30 02:21:00,75.0,71.2,29.91,NNW,333,2.5,6.0,88,0.00,CLR,,0.00,0.0,WeatherDisplay:10.37,2013-08-30 07:21:00,
2013-08-30 02:26:00,74.9,71.1,29.91,NNW,328,3.6,5.8,88,0.00,CLR,,0.00,0.0,WeatherDisplay:10.37,2013-08-30 07:26:00,
2013-08-30 02:31:00,74.7,70.9,29.91,NW,321,2.7,5.0,88,0.00,CLR,,0.00,0.0,WeatherDisplay:10.37,2013-08-30 07:31:00,
2013-08-30 02:36:00,74.5,70.7,29.91,North,349,2.5,6.0,88,0.00,CLR,,0.00,0.0,WeatherDisplay:10.37,2013-08-30 07:36:00,
2013-08-30 02:41:00,74.4,70.6,29.91,North,5,2.6,5.0,88,0.00,CLR,,0.00,0.0,WeatherDisplay:10.37,2013-08-30 07:41:00,
2013-08-30 02:46:00,74.2,70.4,29.91,NW,326,2.3,5.0,88,0.00,CLR,,0.00,0.0,WeatherDisplay:10.37,2013-08-30 07:46:00,
2013-08-30 02:51:00,74.1,70.6,29.91,NW,326,2.1,5.0,89,0.00,CLR,,0.00,0.0,WeatherDisplay:10.37,2013-08-30 07:51:00,
2013-08-30 02:56:00,73.9,70.1,29.91,NNW,338,0.6,3.5,88,0.00,CLR,,0.00,0.0,WeatherDisplay:10.37,2013-08-30 07:56:00,
2013-08-30 03:01:00,73.7,70.3,29.91,North,360,1.4,4.6,89,0.00,CLR,,0.00,0.0,WeatherDisplay:10.37,2013-08-30 08:01:00,
2013-08-30 03:06:00,73.6,70.2,29.91,North,351,1.6,4.0,89,0.00,CLR,,0.00,0.0,WeatherDisplay:10.37,2013-08-30 08:06:00,
2013-08-30 03:11:00,73.4,70.0,29.91,NNW,338,0.0,1.0,89,0.00,CLR,,0.00,0.0,WeatherDisplay:10.37,2013-08-30 08:11:00,
2013-08-30 03:16:00,73.2,69.8,29.91,NW,323,2.0,3.5,89,0.00,CLR,,0.00,0.0,WeatherDisplay:10.37,2013-08-30 08:16:00,
2013-08-30 03:21:00,73.0,69.9,29.91,NNW,337,1.4,3.5,90,0.00,CLR,,0.00,0.0,WeatherDisplay:10.37,2013-08-30 08:21:00,
2013-08-30 03:26:00,72.8,69.7,29.91,North,355,2.7,5.0,90,0.00,CLR,,0.00,0.0,WeatherDisplay:10.37,2013-08-30 08:26:00,
2013-08-30 03:31:00,72.7,69.9,29.92,NNW,348,1.9,4.0,91,0.00,CLR,,0.00,0.0,WeatherDisplay:10.37,2013-08-30 08:31:00,
2013-08-30 03:36:00,72.5,69.7,29.92,NNW,336,0.5,3.0,91,0.00,CLR,,0.00,0.0,WeatherDisplay:10.37,2013-08-30 08:36:00,
2013-08-30 03:41:00,72.4,69.6,29.92,North,355,1.2,2.3,91,0.00,CLR,,0.00,0.0,WeatherDisplay:10.37,2013-08-30 08:41:00,
2013-08-30 03:46:00,72.2,69.7,29.92,North,355,0.0,2.3,92,0.00,CLR,,0.00,0.0,WeatherDisplay:10.37,2013-08-30 08:46:00,
2013-08-30 03:51:00,72.0,69.5,29.92,NNW,337,1.5,3.5,92,0.00,CLR,,0.00,0.0,WeatherDisplay:10.37,2013-08-30 08:51:00,
2013-08-30 03:56:00,71.9,69.4,29.92,NNW,340,0.5,2.3,92,0.00,CLR,,0.00,0.0,WeatherDisplay:10.37,2013-08-30 08:56:00,
2013-08-30 04:01:00,71.8,69.3,29.92,NNW,331,1.1,3.5,92,0.00,CLR,,0.00,0.0,WeatherDisplay:10.37,2013-08-30 09:01:00,
2013-08-30 04:06:00,71.7,69.3,29.92,North,5,3.4,6.0,92,0.00,CLR,,0.00,0.0,WeatherDisplay:10.37,2013-08-30 09:06:00,
2013-08-30 04:11:00,71.5,69.4,29.92,North,351,3.2,6.9,93,0.00,CLR,,0.00,0.0,WeatherDisplay:10.37,2013-08-30 09:11:00,
2013-08-30 04:16:00,71.4,69.3,29.92,North,5,0.7,3.5,93,0.00,CLR,,0.00,0.0,WeatherDisplay:10.37,2013-08-30 09:16:00,
2013-08-30 04:21:00,71.3,69.2,29.93,North,355,1.9,3.5,93,0.00,CLR,,0.00,0.0,WeatherDisplay:10.37,2013-08-30 09:21:00,
2013-08-30 04:26:00,71.3,69.2,29.93,NNW,333,1.4,4.6,93,0.00,CLR,,0.00,0.0,WeatherDisplay:10.37,2013-08-30 09:26:00,
2013-08-30 04:31:00,71.3,69.2,29.92,North,5,2.6,5.0,93,0.00,CLR,,0.00,0.0,WeatherDisplay:10.37,2013-08-30 09:31:00,
2013-08-30 04:36:00,71.2,69.4,29.93,NNW,333,1.3,4.0,94,0.00,CLR,,0.00,0.0,WeatherDisplay:10.37,2013-08-30 09:36:00,
2013-08-30 04:41:00,71.1,69.3,29.93,NNW,339,2.2,4.0,94,0.00,CLR,,0.00,0.0,WeatherDisplay:10.37,2013-08-30 09:41:00,
2013-08-30 04:46:00,71.0,69.2,29.93,NNE,15,2.1,4.0,94,0.00,CLR,,0.00,0.0,WeatherDisplay:10.37,2013-08-30 09:46:00,
2013-08-30 04:51:00,70.9,69.1,29.93,NNW,347,0.9,3.5,94,0.00,CLR,,0.00,0.0,WeatherDisplay:10.37,2013-08-30 09:51:00,
2013-08-30 04:56:00,70.8,69.0,29.93,NW,308,0.7,3.0,94,0.00,CLR,,0.00,0.0,WeatherDisplay:10.37,2013-08-30 09:56:00,
2013-08-30 05:01:00,70.7,68.9,29.93,NW,309,0.4,2.3,94,0.00,CLR,,0.00,0.0,WeatherDisplay:10.37,2013-08-30 10:01:00,
2013-08-30 05:06:00,70.6,68.8,29.93,NNW,330,2.3,4.0,94,0.00,CLR,,0.00,0.0,WeatherDisplay:10.37,2013-08-30 10:06:00,
2013-08-30 05:11:00,70.5,68.7,29.93,North,355,3.1,5.0,94,0.00,CLR,,0.00,0.0,WeatherDisplay:10.37,2013-08-30 10:11:00,
2013-08-30 05:16:00,70.4,68.6,29.93,NNW,327,1.6,4.0,94,0.00,CLR,,0.00,0.0,WeatherDisplay:10.37,2013-08-30 10:16:00,
2013-08-30 05:21:00,70.5,68.7,29.93,NW,325,3.2,8.1,94,0.00,CLR,,0.00,0.0,WeatherDisplay:10.37,2013-08-30 10:21:00,
2013-08-30 05:26:00,70.5,68.7,29.93,North,5,4.2,8.1,94,0.00,CLR,,0.00,0.0,WeatherDisplay:10.37,2013-08-30 10:26:00,
2013-08-30 05:31:00,70.4,68.6,29.93,North,360,4.0,6.0,94,0.00,CLR,,0.00,0.0,WeatherDisplay:10.37,2013-08-30 10:31:00,
2013-08-30 05:36:00,70.3,68.5,29.93,NNE,20,4.2,7.0,94,0.00,CLR,,0.00,0.0,WeatherDisplay:10.37,2013-08-30 10:36:00,
2013-08-30 05:41:00,70.3,68.5,29.93,NNE,22,3.8,8.1,94,0.00,CLR,,0.00,0.0,WeatherDisplay:10.37,2013-08-30 10:41:00,
2013-08-30 05:46:00,70.3,68.5,29.94,North,5,5.6,10.0,94,0.00,CLR,,0.00,0.0,WeatherDisplay:10.37,2013-08-30 10:46:00,
2013-08-30 05:51:00,70.3,68.5,29.94,North,355,4.8,7.0,94,0.00,CLR,,0.00,0.0,WeatherDisplay:10.37,2013-08-30 10:51:00,
2013-08-30 05:56:00,70.2,68.4,29.94,North,355,4.1,9.0,94,0.00,CLR,,0.00,0.0,WeatherDisplay:10.37,2013-08-30 10:56:00,
2013-08-30 06:01:00,70.2,68.4,29.94,NW,318,3.8,6.0,94,0.00,CLR,,0.00,0.0,WeatherDisplay:10.37,2013-08-30 11:01:00,
2013-08-30 06:06:00,70.2,68.4,29.94,NW,321,6.5,13.0,94,0.00,OVC,,0.00,0.0,WeatherDisplay:10.37,2013-08-30 11:06:00,
2013-08-30 06:11:00,70.2,68.1,29.95,North,355,7.0,13.8,93,0.00,OVC,,0.00,0.0,WeatherDisplay:10.37,2013-08-30 11:11:00,
2013-08-30 06:16:00,70.1,67.7,29.94,NNW,336,2.2,4.6,92,0.00,OVC,,0.00,0.0,WeatherDisplay:10.37,2013-08-30 11:16:00,
2013-08-30 06:21:00,70.0,67.6,29.95,NW,325,5.8,9.0,92,0.00,OVC,,0.00,0.0,WeatherDisplay:10.37,2013-08-30 11:21:00,
2013-08-30 06:26:00,70.0,67.6,29.95,North,5,3.7,8.0,92,0.00,OVC,,0.00,0.0,WeatherDisplay:10.37,2013-08-30 11:26:00,
2013-08-30 06:31:00,69.9,67.2,29.95,NNE,26,6.6,13.0,91,0.00,OVC,,0.00,0.0,WeatherDisplay:10.37,2013-08-30 11:31:00,
2013-08-30 06:36:00,69.8,67.1,29.95,NNW,346,2.7,7.0,91,0.00,OVC,,0.00,0.0,WeatherDisplay:10.37,2013-08-30 11:36:00,
2013-08-30 06:41:00,69.8,67.1,29.95,WNW,294,3.3,11.5,91,0.00,OVC,,0.00,0.0,WeatherDisplay:10.37,2013-08-30 11:41:00,
2013-08-30 06:46:00,69.7,67.0,29.95,North,5,6.1,11.0,91,0.00,OVC,,0.00,0.0,WeatherDisplay:10.37,2013-08-30 11:46:00,
2013-08-30 06:51:00,69.7,67.0,29.96,North,355,6.2,8.1,91,0.00,OVC,,0.00,5.0,WeatherDisplay:10.37,2013-08-30 11:51:00,
2013-08-30 06:56:00,69.5,66.4,29.96,NW,317,4.7,8.1,90,0.00,OVC,,0.00,9.0,WeatherDisplay:10.37,2013-08-30 11:56:00,
2013-08-30 07:01:00,69.4,66.3,29.96,NNW,342,1.7,4.6,90,0.00,OVC,,0.00,12.0,WeatherDisplay:10.37,2013-08-30 12:01:00,
2013-08-30 07:06:00,69.3,66.2,29.96,NNE,15,5.5,8.1,90,0.00,OVC,,0.00,16.0,WeatherDisplay:10.37,2013-08-30 12:06:00,
2013-08-30 07:11:00,69.2,66.1,29.96,NNW,347,5.6,8.1,90,0.00,OVC,,0.00,18.0,WeatherDisplay:10.37,2013-08-30 12:11:00,
2013-08-30 07:16:00,69.1,66.0,29.97,NNW,336,3.8,9.2,90,0.00,OVC,,0.00,21.0,WeatherDisplay:10.37,2013-08-30 12:16:00,
2013-08-30 07:21:00,69.0,65.6,29.97,NNW,327,4.1,8.1,89,0.00,OVC,,0.00,26.0,WeatherDisplay:10.37,2013-08-30 12:21:00,
2013-08-30 07:26:00,69.0,65.6,29.97,NE,36,6.0,9.2,89,0.00,OVC,,0.00,30.0,WeatherDisplay:10.37,2013-08-30 12:26:00,
2013-08-30 07:31:00,68.9,65.5,29.97,NNW,345,2.5,6.9,89,0.00,OVC,,0.00,33.0,WeatherDisplay:10.37,2013-08-30 12:31:00,
2013-08-30 07:36:00,69.0,65.6,29.97,WNW,301,4.8,9.2,89,0.00,OVC,,0.00,37.0,WeatherDisplay:10.37,2013-08-30 12:36:00,
2013-08-30 07:41:00,69.0,65.6,29.97,NNW,331,4.8,8.0,89,0.00,OVC,,0.00,37.0,WeatherDisplay:10.37,2013-08-30 12:41:00,
2013-08-30 07:46:00,69.0,65.3,29.97,North,355,4.0,6.0,88,0.00,OVC,,0.00,47.0,WeatherDisplay:10.37,2013-08-30 12:46:00,
2013-08-30 07:51:00,69.1,65.7,29.97,North,355,0.5,2.3,89,0.00,OVC,,0.00,58.0,WeatherDisplay:10.37,2013-08-30 12:51:00,
2013-08-30 07:56:00,69.0,65.3,29.98,North,360,4.9,11.0,88,0.00,OVC,,0.00,69.0,WeatherDisplay:10.37,2013-08-30 12:56:00,
2013-08-30 08:01:00,69.0,65.3,29.97,NNE,23,6.1,12.0,88,0.00,OVC,,0.00,98.0,WeatherDisplay:10.37,2013-08-30 13:01:00,
2013-08-30 08:06:00,69.0,65.0,29.98,North,5,4.6,8.0,87,0.00,OVC,,0.00,81.0,WeatherDisplay:10.37,2013-08-30 13:06:00,
2013-08-30 08:11:00,68.9,64.9,29.98,NNW,336,2.9,6.0,87,0.00,OVC,,0.00,51.0,WeatherDisplay:10.37,2013-08-30 13:11:00,
2013-08-30 08:16:00,68.6,64.2,29.98,North,350,3.9,8.1,86,0.00,OVC,,0.00,81.0,WeatherDisplay:10.37,2013-08-30 13:16:00,
2013-08-30 08:21:00,68.6,64.2,29.98,NW,326,4.3,9.2,86,0.00,OVC,,0.00,121.0,WeatherDisplay:10.37,2013-08-30 13:21:00,
2013-08-30 08:26:00,68.8,64.4,29.98,NNE,28,6.3,10.4,86,0.00,OVC,,0.00,132.0,WeatherDisplay:10.37,2013-08-30 13:26:00,
2013-08-30 08:31:00,69.0,64.6,29.98,NNE,28,4.1,8.1,86,0.00,OVC,,0.00,155.0,WeatherDisplay:10.37,2013-08-30 13:31:00,
2013-08-30 08:36:00,69.3,64.9,29.98,NNE,26,3.0,5.8,86,0.00,OVC,,0.00,181.0,WeatherDisplay:10.37,2013-08-30 13:36:00,
2013-08-30 08:41:00,69.9,64.8,29.99,NW,305,6.6,11.5,84,0.00,OVC,,0.00,141.0,WeatherDisplay:10.37,2013-08-30 13:41:00,
2013-08-30 08:46:00,69.8,64.4,29.99,NNE,29,1.3,11.5,83,0.00,OVC,,0.00,137.0,WeatherDisplay:10.37,2013-08-30 13:46:00,
2013-08-30 08:51:00,69.8,64.4,29.99,NNW,336,3.0,6.9,83,0.00,OVC,,0.00,146.0,WeatherDisplay:10.37,2013-08-30 13:51:00,
2013-08-30 08:56:00,70.0,64.6,30.00,North,355,3.3,7.0,83,0.00,OVC,,0.00,171.0,WeatherDisplay:10.37,2013-08-30 13:56:00,
2013-08-30 09:01:00,70.1,64.3,30.00,NNE,12,1.8,3.5,82,0.00,OVC,,0.00,169.0,WeatherDisplay:10.37,2013-08-30 14:01:00,
2013-08-30 09:06:00,70.2,64.4,30.00,NNE,13,3.1,6.0,82,0.00,OVC,,0.00,171.0,WeatherDisplay:10.37,2013-08-30 14:06:00,
2013-08-30 09:11:00,70.3,64.5,30.00,ENE,75,4.2,7.0,82,0.00,OVC,,0.00,171.0,WeatherDisplay:10.37,2013-08-30 14:11:00,
2013-08-30 09:16:00,70.4,64.6,30.00,North,5,3.4,9.2,82,0.00,OVC,,0.00,171.0,WeatherDisplay:10.37,2013-08-30 14:16:00,
2013-08-30 09:21:00,70.5,64.7,30.00,NNE,32,2.8,6.0,82,0.00,OVC,,0.00,190.0,WeatherDisplay:10.37,2013-08-30 14:21:00,
2013-08-30 09:26:00,70.6,64.8,30.00,NE,44,4.8,8.1,82,0.00,OVC,,0.00,244.0,WeatherDisplay:10.37,2013-08-30 14:26:00,
2013-08-30 09:31:00,70.6,64.5,30.01,NE,38,6.1,11.5,81,0.00,OVC,,0.00,257.0,WeatherDisplay:10.37,2013-08-30 14:31:00,
2013-08-30 09:36:00,70.9,64.4,30.01,NW,321,5.1,10.0,80,0.00,OVC,,0.00,302.0,WeatherDisplay:10.37,2013-08-30 14:36:00,
2013-08-30 09:41:00,70.6,63.8,30.01,NE,39,6.4,11.5,79,0.00,OVC,,0.00,139.0,WeatherDisplay:10.37,2013-08-30 14:41:00,
2013-08-30 09:46:00,70.2,63.7,30.01,NNE,32,5.8,12.0,80,0.00,OVC,,0.00,193.0,WeatherDisplay:10.37,2013-08-30 14:46:00,
2013-08-30 09:51:00,70.0,63.5,30.01,NNE,13,4.3,13.8,80,0.00,OVC,,0.00,257.0,WeatherDisplay:10.37,2013-08-30 14:51:00,
2013-08-30 09:56:00,70.4,63.9,30.01,NNE,12,2.2,6.0,80,0.00,OVC,,0.00,262.0,WeatherDisplay:10.37,2013-08-30 14:56:00,
2013-08-30 10:01:00,70.7,63.9,30.01,NNE,31,5.8,10.4,79,0.00,OVC,,0.00,230.0,WeatherDisplay:10.37,2013-08-30 15:01:00,
2013-08-30 10:06:00,70.9,64.1,30.01,North,360,2.9,6.0,79,0.00,OVC,,0.00,279.0,WeatherDisplay:10.37,2013-08-30 15:06:00,
2013-08-30 10:11:00,71.2,64.4,30.02,NE,42,4.8,9.2,79,0.00,OVC,,0.00,278.0,WeatherDisplay:10.37,2013-08-30 15:11:00,
2013-08-30 10:16:00,71.7,64.5,30.01,North,5,2.2,8.0,78,0.00,OVC,,0.00,329.0,WeatherDisplay:10.37,2013-08-30 15:16:00,
2013-08-30 10:21:00,71.9,64.7,30.01,North,5,3.2,5.0,78,0.00,OVC,,0.00,366.0,WeatherDisplay:10.37,2013-08-30 15:21:00,
2013-08-30 10:26:00,71.8,64.2,30.01,NE,55,5.5,10.4,77,0.00,OVC,,0.00,306.0,WeatherDisplay:10.37,2013-08-30 15:26:00,
2013-08-30 10:31:00,71.5,63.9,30.01,NE,45,5.5,10.4,77,0.00,OVC,,0.00,357.0,WeatherDisplay:10.37,2013-08-30 15:31:00,
2013-08-30 10:36:00,71.9,64.3,30.01,North,355,4.2,8.1,77,0.00,OVC,,0.00,350.0,WeatherDisplay:10.37,2013-08-30 15:36:00,
2013-08-30 10:41:00,72.1,64.1,30.01,NE,39,6.7,12.0,76,0.00,OVC,,0.00,339.0,WeatherDisplay:10.37,2013-08-30 15:41:00,
2013-08-30 10:46:00,72.4,64.4,30.02,North,351,4.7,8.0,76,0.00,OVC,,0.00,294.0,WeatherDisplay:10.37,2013-08-30 15:46:00,
2013-08-30 10:51:00,72.8,64.4,30.01,NNE,23,4.1,7.0,75,0.00,OVC,,0.00,406.0,WeatherDisplay:10.37,2013-08-30 15:51:00,
2013-08-30 10:56:00,73.0,64.6,30.01,North,355,4.0,8.1,75,0.00,OVC,,0.00,281.0,WeatherDisplay:10.37,2013-08-30 15:56:00,
2013-08-30 11:01:00,73.4,64.6,30.01,NE,40,3.5,6.9,74,0.00,OVC,,0.00,316.0,WeatherDisplay:10.37,2013-08-30 16:01:00,
2013-08-30 11:06:00,73.7,64.9,30.01,NE,45,7.3,10.4,74,0.00,OVC,,0.00,271.0,WeatherDisplay:10.37,2013-08-30 16:06:00,
2013-08-30 11:11:00,74.1,65.3,30.01,NNE,15,3.9,7.0,74,0.00,OVC,,0.00,729.0,WeatherDisplay:10.37,2013-08-30 16:11:00,
2013-08-30 11:16:00,74.7,65.1,30.01,North,355,5.0,8.0,72,0.00,OVC,,0.00,694.0,WeatherDisplay:10.37,2013-08-30 16:16:00,
2013-08-30 11:21:00,75.1,65.1,30.01,NNW,333,7.1,11.5,71,0.00,OVC,,0.00,700.0,WeatherDisplay:10.37,2013-08-30 16:21:00,
2013-08-30 11:26:00,75.5,65.4,30.01,NNE,28,6.0,9.2,71,0.00,OVC,,0.00,703.0,WeatherDisplay:10.37,2013-08-30 16:26:00,
2013-08-30 11:31:00,75.6,65.5,30.01,NNE,23,7.7,12.0,71,0.00,OVC,,0.00,682.0,WeatherDisplay:10.37,2013-08-30 16:31:00,
2013-08-30 11:36:00,76.0,65.1,30.01,NNE,20,7.5,13.0,69,0.00,OVC,,0.00,684.0,WeatherDisplay:10.37,2013-08-30 16:36:00,
2013-08-30 11:41:00,76.3,65.4,30.00,NNW,343,4.3,9.2,69,0.00,OVC,,0.00,693.0,WeatherDisplay:10.37,2013-08-30 16:41:00,
2013-08-30 11:46:00,76.2,65.7,30.01,NE,47,2.7,5.0,70,0.00,OVC,,0.00,714.0,WeatherDisplay:10.37,2013-08-30 16:46:00,
2013-08-30 11:51:00,77.1,65.7,30.01,NNW,342,3.8,7.0,68,0.00,OVC,,0.00,742.0,WeatherDisplay:10.37,2013-08-30 16:51:00,
2013-08-30 11:56:00,77.7,66.3,30.00,NE,44,4.0,7.0,68,0.00,OVC,,0.00,751.0,WeatherDisplay:10.37,2013-08-30 16:56:00,
2013-08-30 12:01:00,77.8,66.0,30.01,NE,42,4.3,6.0,67,0.00,OVC,,0.00,735.0,WeatherDisplay:10.37,2013-08-30 17:01:00,
2013-08-30 12:06:00,77.7,65.9,30.01,NE,40,8.7,14.0,67,0.00,SCT,,0.00,735.0,WeatherDisplay:10.37,2013-08-30 17:06:00,
2013-08-30 12:11:00,77.6,65.8,30.01,NE,42,2.9,7.0,67,0.00,SCT,,0.00,745.0,WeatherDisplay:10.37,2013-08-30 17:11:00,
2013-08-30 12:16:00,78.4,66.5,30.01,ENE,65,4.9,12.0,67,0.00,SCT,,0.00,844.0,WeatherDisplay:10.37,2013-08-30 17:16:00,
2013-08-30 12:21:00,78.5,66.2,30.01,NNE,32,5.1,9.2,66,0.00,SCT,,0.00,809.0,WeatherDisplay:10.37,2013-08-30 17:21:00,
2013-08-30 12:26:00,78.3,66.0,30.01,ENE,60,1.9,5.0,66,0.00,SCT,,0.00,408.0,WeatherDisplay:10.37,2013-08-30 17:26:00,
2013-08-30 12:31:00,78.3,66.0,30.01,NNE,19,6.6,9.2,66,0.00,SCT,,0.00,408.0,WeatherDisplay:10.37,2013-08-30 17:31:00,
2013-08-30 12:36:00,77.6,65.8,30.01,NE,40,4.6,9.0,67,0.00,SCT,,0.00,436.0,WeatherDisplay:10.37,2013-08-30 17:36:00,
2013-08-30 12:41:00,77.9,66.1,30.01,NNE,16,3.2,7.0,67,0.00,SCT,,0.00,793.0,WeatherDisplay:10.37,2013-08-30 17:41:00,
2013-08-30 12:46:00,78.5,65.8,30.01,NNE,24,3.4,6.9,65,0.00,SCT,,0.00,788.0,WeatherDisplay:10.37,2013-08-30 17:46:00,
2013-08-30 12:51:00,78.5,65.3,30.01,NNE,26,4.8,6.0,64,0.00,SCT,,0.00,788.0,WeatherDisplay:10.37,2013-08-30 17:51:00,
2013-08-30 12:56:00,78.5,65.3,30.01,NNE,15,4.1,6.0,64,0.00,SCT,,0.00,810.0,WeatherDisplay:10.37,2013-08-30 17:56:00,
2013-08-30 13:01:00,79.0,65.8,30.01,NE,38,4.1,6.0,64,0.00,SCT,,0.00,807.0,WeatherDisplay:10.37,2013-08-30 18:01:00,
2013-08-30 13:06:00,79.2,66.0,30.01,North,355,3.3,9.2,64,0.00,SCT,,0.00,789.0,WeatherDisplay:10.37,2013-08-30 18:06:00,
2013-08-30 13:11:00,79.5,65.8,30.01,NNE,17,4.0,7.0,63,0.00,SCT,,0.00,865.0,WeatherDisplay:10.37,2013-08-30 18:11:00,
2013-08-30 13:16:00,79.3,65.6,30.01,NNE,32,6.5,9.2,63,0.00,SCT,,0.00,875.0,WeatherDisplay:10.37,2013-08-30 18:16:00,
2013-08-30 13:21:00,79.7,66.0,30.01,NNE,32,2.8,5.0,63,0.00,SCT,,0.00,844.0,WeatherDisplay:10.37,2013-08-30 18:21:00,
2013-08-30 13:26:00,80.0,66.3,30.00,NE,39,2.0,5.0,63,0.00,SCT,,0.00,861.0,WeatherDisplay:10.37,2013-08-30 18:26:00,
2013-08-30 13:31:00,80.3,66.6,30.00,NE,43,5.2,10.0,63,0.00,SCT,,0.00,947.0,WeatherDisplay:10.37,2013-08-30 18:31:00,
2013-08-30 13:36:00,80.3,66.1,30.01,NNE,33,2.2,3.5,62,0.00,SCT,,0.00,424.0,WeatherDisplay:10.37,2013-08-30 18:36:00,
2013-08-30 13:41:00,80.1,65.9,30.01,North,5,6.8,9.2,62,0.00,SCT,,0.00,327.0,WeatherDisplay:10.37,2013-08-30 18:41:00,
2013-08-30 13:46:00,79.8,66.1,30.01,NE,46,3.7,6.0,63,0.00,SCT,,0.00,269.0,WeatherDisplay:10.37,2013-08-30 18:46:00,
2013-08-30 13:51:00,79.7,66.0,30.00,North,5,3.5,8.0,63,0.00,SCT,,0.00,350.0,WeatherDisplay:10.37,2013-08-30 18:51:00,
2013-08-30 13:56:00,79.8,66.1,30.01,ENE,74,5.3,10.0,63,0.00,SCT,,0.00,835.0,WeatherDisplay:10.37,2013-08-30 18:56:00,
2013-08-30 14:01:00,79.8,65.6,30.00,NNE,33,3.8,10.0,62,0.00,SCT,,0.00,921.0,WeatherDisplay:10.37,2013-08-30 19:01:00,
2013-08-30 14:06:00,79.8,66.1,30.00,NNE,15,4.5,10.0,63,0.00,BKN,,0.00,775.0,WeatherDisplay:10.37,2013-08-30 19:06:00,
2013-08-30 14:11:00,80.0,65.8,30.00,North,360,4.5,8.1,62,0.00,BKN,,0.00,772.0,WeatherDisplay:10.37,2013-08-30 19:11:00,
2013-08-30 14:16:00,80.2,66.0,30.00,NE,50,5.1,8.1,62,0.00,BKN,,0.00,751.0,WeatherDisplay:10.37,2013-08-30 19:16:00,
2013-08-30 14:21:00,80.3,66.6,30.00,ENE,69,2.3,5.0,63,0.00,BKN,,0.00,744.0,WeatherDisplay:10.37,2013-08-30 19:21:00,
2013-08-30 14:26:00,80.9,66.2,30.00,ENE,61,5.5,8.1,61,0.00,BKN,,0.00,733.0,WeatherDisplay:10.37,2013-08-30 19:26:00,
2013-08-30 14:31:00,81.5,66.8,30.00,NE,44,2.0,5.0,61,0.00,BKN,,0.00,724.0,WeatherDisplay:10.37,2013-08-30 19:31:00,
2013-08-30 14:36:00,82.3,66.5,30.00,NNE,30,2.5,5.0,59,0.00,BKN,,0.00,715.0,WeatherDisplay:10.37,2013-08-30 19:36:00,
2013-08-30 14:41:00,82.4,66.1,30.00,North,5,2.2,5.8,58,0.00,BKN,,0.00,714.0,WeatherDisplay:10.37,2013-08-30 19:41:00,
2013-08-30 14:46:00,81.9,66.2,29.99,WSW,241,2.3,5.0,59,0.00,BKN,,0.00,703.0,WeatherDisplay:10.37,2013-08-30 19:46:00,
2013-08-30 14:51:00,81.4,66.2,29.99,ENE,69,4.1,8.0,60,0.00,BKN,,0.00,700.0,WeatherDisplay:10.37,2013-08-30 19:51:00,
2013-08-30 14:56:00,81.7,66.5,29.99,North,9,1.2,3.5,60,0.00,BKN,,0.00,693.0,WeatherDisplay:10.37,2013-08-30 19:56:00,
2013-08-30 15:01:00,81.9,66.2,29.99,North,355,1.6,4.0,59,0.00,BKN,,0.00,686.0,WeatherDisplay:10.37,2013-08-30 20:01:00,
2013-08-30 15:06:00,82.1,66.8,29.99,NE,34,1.5,3.5,60,0.00,FEW,,0.00,677.0,WeatherDisplay:10.37,2013-08-30 20:06:00,
2013-08-30 15:11:00,82.3,66.5,29.99,ENE,61,5.9,9.0,59,0.00,FEW,,0.00,684.0,WeatherDisplay:10.37,2013-08-30 20:11:00,
2013-08-30 15:16:00,83.0,66.7,29.99,North,5,4.5,8.1,58,0.00,FEW,,0.00,675.0,WeatherDisplay:10.37,2013-08-30 20:16:00,
2013-08-30 15:21:00,83.0,66.7,29.99,NE,53,4.2,6.0,58,0.00,FEW,,0.00,682.0,WeatherDisplay:10.37,2013-08-30 20:21:00,
2013-08-30 15:26:00,82.9,66.6,29.99,NNE,26,0.4,3.0,58,0.00,FEW,,0.00,677.0,WeatherDisplay:10.37,2013-08-30 20:26:00,
2013-08-30 15:31:00,83.1,66.8,29.99,NE,51,3.8,7.0,58,0.00,FEW,,0.00,652.0,WeatherDisplay:10.37,2013-08-30 20:31:00,
2013-08-30 15:36:00,83.4,66.6,29.99,NE,48,3.3,5.0,57,0.00,FEW,,0.00,647.0,WeatherDisplay:10.37,2013-08-30 20:36:00,
2013-08-30 15:41:00,83.1,66.3,29.99,NE,36,5.4,8.1,57,0.00,FEW,,0.00,628.0,WeatherDisplay:10.37,2013-08-30 20:41:00,
2013-08-30 15:46:00,83.0,66.2,29.99,NNW,344,3.8,9.0,57,0.00,FEW,,0.00,619.0,WeatherDisplay:10.37,2013-08-30 20:46:00,
2013-08-30 15:51:00,83.0,66.2,29.99,NE,53,2.0,5.0,57,0.00,FEW,,0.00,619.0,WeatherDisplay:10.37,2013-08-30 20:51:00,
2013-08-30 15:56:00,83.0,66.7,29.99,NNE,12,1.7,4.6,58,0.00,FEW,,0.00,603.0,WeatherDisplay:10.37,2013-08-30 20:56:00,
2013-08-30 16:01:00,83.2,66.4,29.99,North,355,2.9,6.0,57,0.00,FEW,,0.00,585.0,WeatherDisplay:10.37,2013-08-30 21:01:00,
2013-08-30 16:06:00,83.8,66.9,29.98,ENE,64,3.1,7.0,57,0.00,CLR,,0.00,573.0,WeatherDisplay:10.37,2013-08-30 21:06:00,
2013-08-30 16:11:00,83.3,66.5,29.98,NE,43,1.7,4.0,57,0.00,CLR,,0.00,564.0,WeatherDisplay:10.37,2013-08-30 21:11:00,
2013-08-30 16:17:00,83.4,66.1,29.98,ENE,66,2.5,5.0,56,0.00,CLR,,0.00,541.0,WeatherDisplay:10.37,2013-08-30 21:17:00,
2013-08-30 16:22:00,83.8,66.4,29.98,NE,50,2.2,4.0,56,0.00,CLR,,0.00,531.0,WeatherDisplay:10.37,2013-08-30 21:22:00,
2013-08-30 16:27:00,84.5,66.6,29.97,North,5,0.6,3.5,55,0.00,CLR,,0.00,522.0,WeatherDisplay:10.37,2013-08-30 21:27:00,
2013-08-30 16:32:00,84.6,66.1,29.97,North,5,4.4,7.0,54,0.00,CLR,,0.00,512.0,WeatherDisplay:10.37,2013-08-30 21:32:00,
2013-08-30 16:37:00,84.3,66.4,29.97,NNE,28,3.0,6.0,55,0.00,CLR,,0.00,497.0,WeatherDisplay:10.37,2013-08-30 21:37:00,
2013-08-30 16:42:00,83.9,66.5,29.97,North,355,3.0,6.0,56,0.00,CLR,,0.00,483.0,WeatherDisplay:10.37,2013-08-30 21:42:00,
2013-08-30 16:47:00,83.5,66.2,29.97,NE,38,5.4,10.0,56,0.00,CLR,,0.00,473.0,WeatherDisplay:10.37,2013-08-30 21:47:00,
2013-08-30 16:52:00,83.6,65.7,29.97,NNE,15,4.2,7.0,55,0.00,CLR,,0.00,457.0,WeatherDisplay:10.37,2013-08-30 21:52:00,
2013-08-30 16:57:00,83.7,66.3,29.97,NNE,13,2.5,4.0,56,0.00,CLR,,0.00,446.0,WeatherDisplay:10.37,2013-08-30 21:57:00,
2013-08-30 17:02:00,83.6,66.2,29.97,North,5,0.5,2.3,56,0.00,CLR,,0.00,434.0,WeatherDisplay:10.37,2013-08-30 22:02:00,
2013-08-30 17:07:00,83.7,66.3,29.97,NNE,15,0.3,1.2,56,0.00,CLR,,0.00,418.0,WeatherDisplay:10.37,2013-08-30 22:07:00,
2013-08-30 17:12:00,83.8,66.4,29.97,North,360,2.5,6.9,56,0.00,CLR,,0.00,404.0,WeatherDisplay:10.37,2013-08-30 22:12:00,
2013-08-30 17:17:00,84.0,67.1,29.96,NE,42,1.7,4.6,57,0.00,CLR,,0.00,396.0,WeatherDisplay:10.37,2013-08-30 22:17:00,
2013-08-30 17:22:00,83.8,66.4,29.96,North,9,3.2,6.0,56,0.00,CLR,,0.00,376.0,WeatherDisplay:10.37,2013-08-30 22:22:00,
2013-08-30 17:27:00,83.6,66.8,29.96,NNE,14,1.4,6.0,57,0.00,CLR,,0.00,364.0,WeatherDisplay:10.37,2013-08-30 22:27:00,
2013-08-30 17:32:00,83.4,66.1,29.96,SSE,157,3.4,7.0,56,0.00,CLR,,0.00,352.0,WeatherDisplay:10.37,2013-08-30 22:32:00,
2013-08-30 17:37:00,83.6,66.2,29.96,North,10,2.6,5.0,56,0.00,CLR,,0.00,334.0,WeatherDisplay:10.37,2013-08-30 22:37:00,
2013-08-30 17:42:00,83.6,66.2,29.96,ENE,65,0.8,2.3,56,0.00,CLR,,0.00,322.0,WeatherDisplay:10.37,2013-08-30 22:42:00,
2013-08-30 17:47:00,83.8,66.4,29.96,NNW,327,2.8,4.0,56,0.00,CLR,,0.00,308.0,WeatherDisplay:10.37,2013-08-30 22:47:00,
2013-08-30 17:52:00,83.7,66.8,29.97,ENE,78,0.3,2.3,57,0.00,CLR,,0.00,295.0,WeatherDisplay:10.37,2013-08-30 22:52:00,
2013-08-30 17:57:00,83.7,66.3,29.97,NNE,27,3.1,5.0,56,0.00,CLR,,0.00,276.0,WeatherDisplay:10.37,2013-08-30 22:57:00,
2013-08-30 18:02:00,83.3,66.5,29.97,NNE,12,1.2,4.6,57,0.00,CLR,,0.00,265.0,WeatherDisplay:10.37,2013-08-30 23:02:00,
2013-08-30 18:07:00,83.0,66.2,29.97,NE,44,1.6,3.5,57,0.00,CLR,,0.00,251.0,WeatherDisplay:10.37,2013-08-30 23:07:00,
2013-08-30 18:12:00,82.9,66.1,29.96,NNE,21,1.0,3.5,57,0.00,CLR,,0.00,237.0,WeatherDisplay:10.37,2013-08-30 23:12:00,
2013-08-30 18:17:00,82.7,66.4,29.96,NNE,29,1.0,2.3,58,0.00,CLR,,0.00,220.0,WeatherDisplay:10.37,2013-08-30 23:17:00,
2013-08-30 18:22:00,82.9,66.1,29.96,NNE,30,1.0,4.0,57,0.00,CLR,,0.00,206.0,WeatherDisplay:10.37,2013-08-30 23:22:00,
2013-08-30 18:27:00,82.4,66.1,29.96,ENE,68,0.7,1.2,58,0.00,CLR,,0.00,185.0,WeatherDisplay:10.37,2013-08-30 23:27:00,
2013-08-30 18:32:00,82.5,66.7,29.95,ENE,67,0.0,1.0,59,0.00,CLR,,0.00,169.0,WeatherDisplay:10.37,2013-08-30 23:32:00,
2013-08-30 18:37:00,82.2,66.4,29.95,NE,55,1.2,2.3,59,0.00,CLR,,0.00,155.0,WeatherDisplay:10.37,2013-08-30 23:37:00,
2013-08-30 18:42:00,82.1,66.4,29.95,NNE,22,1.8,3.5,59,0.00,CLR,,0.00,134.0,WeatherDisplay:10.37,2013-08-30 23:42:00,
2013-08-30 18:47:00,81.9,66.2,29.95,NNE,25,3.0,4.0,59,0.00,CLR,,0.00,120.0,WeatherDisplay:10.37,2013-08-30 23:47:00,
2013-08-30 18:52:00,81.5,66.3,29.95,NNE,19,0.7,3.5,60,0.00,CLR,,0.00,107.0,WeatherDisplay:10.37,2013-08-30 23:52:00,
2013-08-30 18:57:00,81.0,65.8,29.95,NE,34,0.8,3.5,60,0.00,CLR,,0.00,90.0,WeatherDisplay:10.37,2013-08-30 23:57:00,
2013-08-30 19:02:00,80.9,66.7,29.95,NE,35,1.4,2.0,62,0.00,CLR,,0.00,76.0,WeatherDisplay:10.37,2013-08-31 00:02:00,
2013-08-30 19:07:00,80.6,66.8,29.95,NE,35,0.0,2.3,63,0.00,CLR,,0.00,65.0,WeatherDisplay:10.37,2013-08-31 00:07:00,
2013-08-30 19:12:00,80.4,66.2,29.95,NE,36,1.0,2.3,62,0.00,CLR,,0.00,53.0,WeatherDisplay:10.37,2013-08-31 00:12:00,
2013-08-30 19:17:00,80.4,66.6,29.95,NE,36,0.0,0.0,63,0.00,CLR,,0.00,44.0,WeatherDisplay:10.37,2013-08-31 00:17:00,
2013-08-30 19:22:00,80.2,66.5,29.95,NE,36,0.1,1.0,63,0.00,CLR,,0.00,33.0,WeatherDisplay:10.37,2013-08-31 00:22:00,
2013-08-30 19:27:00,79.9,66.6,29.95,NE,36,0.0,0.0,64,0.00,CLR,,0.00,25.0,WeatherDisplay:10.37,2013-08-31 00:27:00,
2013-08-30 19:32:00,79.4,66.2,29.95,NE,36,0.0,1.2,64,0.00,CLR,,0.00,19.0,WeatherDisplay:10.37,2013-08-31 00:32:00,
2013-08-30 19:37:00,79.0,66.2,29.95,NE,36,0.0,0.0,65,0.00,CLR,,0.00,18.0,WeatherDisplay:10.37,2013-08-31 00:37:00,
2013-08-30 19:42:00,78.7,66.4,29.95,NE,36,0.0,0.0,66,0.00,CLR,,0.00,14.0,WeatherDisplay:10.37,2013-08-31 00:42:00,
2013-08-30 19:47:00,78.4,65.7,29.95,NE,36,0.0,0.0,65,0.00,CLR,,0.00,11.0,WeatherDisplay:10.37,2013-08-31 00:47:00,
2013-08-30 19:52:00,77.9,66.1,29.94,NE,36,0.0,0.0,67,0.00,CLR,,0.00,7.0,WeatherDisplay:10.37,2013-08-31 00:52:00,
2013-08-30 19:57:00,77.5,65.7,29.94,NE,36,0.0,0.0,67,0.00,CLR,,0.00,0.0,WeatherDisplay:10.37,2013-08-31 00:57:00,
2013-08-30 20:02:00,77.0,66.0,29.94,NE,36,0.0,0.0,69,0.00,CLR,,0.00,0.0,WeatherDisplay:10.37,2013-08-31 01:02:00,
2013-08-30 20:07:00,76.9,66.0,29.95,NE,36,0.0,0.0,69,0.00,CLR,,0.00,0.0,WeatherDisplay:10.37,2013-08-31 01:07:00,
2013-08-30 20:12:00,76.6,65.7,29.95,NE,36,0.0,0.0,69,0.00,CLR,,0.00,0.0,WeatherDisplay:10.37,2013-08-31 01:12:00,
2013-08-30 20:17:00,76.4,65.5,29.95,NE,36,0.0,0.0,69,0.00,CLR,,0.00,0.0,WeatherDisplay:10.37,2013-08-31 01:17:00,
2013-08-30 20:22:00,76.2,65.3,29.95,NE,36,0.1,1.2,69,0.00,CLR,,0.00,0.0,WeatherDisplay:10.37,2013-08-31 01:22:00,
2013-08-30 20:27:00,76.0,65.9,29.94,NE,36,0.0,0.0,71,0.00,CLR,,0.00,0.0,WeatherDisplay:10.37,2013-08-31 01:27:00,
2013-08-30 20:32:00,75.4,65.3,29.94,NE,36,0.0,0.0,71,0.00,CLR,,0.00,0.0,WeatherDisplay:10.37,2013-08-31 01:32:00,
2013-08-30 20:37:00,75.1,65.1,29.94,NE,36,0.0,0.0,71,0.00,CLR,,0.00,0.0,WeatherDisplay:10.37,2013-08-31 01:37:00,
2013-08-30 20:42:00,74.9,65.3,29.94,NE,36,0.0,0.0,72,0.00,CLR,,0.00,0.0,WeatherDisplay:10.37,2013-08-31 01:42:00,
2013-08-30 20:47:00,75.1,65.1,29.94,NE,36,0.0,0.0,71,0.00,CLR,,0.00,0.0,WeatherDisplay:10.37,2013-08-31 01:47:00,
2013-08-30 20:52:00,74.8,65.6,29.94,NE,36,0.0,0.0,73,0.00,CLR,,0.00,0.0,WeatherDisplay:10.37,2013-08-31 01:52:00,
2013-08-30 20:57:00,74.3,65.1,29.94,NE,36,0.0,0.0,73,0.00,CLR,,0.00,0.0,WeatherDisplay:10.37,2013-08-31 01:57:00,
2013-08-30 21:02:00,73.7,64.9,29.94,NE,36,0.0,0.0,74,0.00,CLR,,0.00,0.0,WeatherDisplay:10.37,2013-08-31 02:02:00,
2013-08-30 21:07:00,73.2,65.2,29.94,NE,36,0.0,0.0,76,0.00,CLR,,0.00,0.0,WeatherDisplay:10.37,2013-08-31 02:07:00,
2013-08-30 21:12:00,73.1,65.5,29.94,NE,36,0.0,0.0,77,0.00,CLR,,0.00,0.0,WeatherDisplay:10.37,2013-08-31 02:12:00,
2013-08-30 21:17:00,72.8,65.5,29.94,NE,36,0.0,0.0,78,0.00,CLR,,0.00,0.0,WeatherDisplay:10.37,2013-08-31 02:17:00,
2013-08-30 21:22:00,72.7,65.4,29.94,NE,36,0.0,0.0,78,0.00,CLR,,0.00,0.0,WeatherDisplay:10.37,2013-08-31 02:22:00,
2013-08-30 21:27:00,72.5,65.6,29.94,NE,36,0.0,0.0,79,0.00,CLR,,0.00,0.0,WeatherDisplay:10.37,2013-08-31 02:27:00,
2013-08-30 21:32:00,72.2,65.3,29.94,NE,36,0.0,0.0,79,0.00,CLR,,0.00,0.0,WeatherDisplay:10.37,2013-08-31 02:32:00,
2013-08-30 21:37:00,72.0,65.1,29.94,NE,36,0.0,0.0,79,0.00,CLR,,0.00,0.0,WeatherDisplay:10.37,2013-08-31 02:37:00,
2013-08-30 21:42:00,71.8,64.9,29.94,NE,36,0.0,0.0,79,0.00,CLR,,0.00,0.0,WeatherDisplay:10.37,2013-08-31 02:42:00,
2013-08-30 21:47:00,71.4,65.3,29.94,NE,36,0.0,0.0,81,0.00,CLR,,0.00,0.0,WeatherDisplay:10.37,2013-08-31 02:47:00,
2013-08-30 21:52:00,71.1,65.0,29.95,NE,36,0.1,1.0,81,0.00,CLR,,0.00,0.0,WeatherDisplay:10.37,2013-08-31 02:52:00,
2013-08-30 21:57:00,70.7,65.6,29.94,NE,36,0.0,1.2,84,0.00,CLR,,0.00,0.0,WeatherDisplay:10.37,2013-08-31 02:57:00,
2013-08-30 22:02:00,70.3,65.6,29.94,NE,36,0.0,1.2,85,0.00,CLR,,0.00,0.0,WeatherDisplay:10.37,2013-08-31 03:02:00,
2013-08-30 22:07:00,70.2,65.1,29.95,NE,36,0.0,0.0,84,0.00,CLR,,0.00,0.0,WeatherDisplay:10.37,2013-08-31 03:07:00,
2013-08-30 22:12:00,70.8,65.0,29.95,NE,39,0.0,1.2,82,0.00,CLR,,0.00,0.0,WeatherDisplay:10.37,2013-08-31 03:12:00,
2013-08-30 22:17:00,70.9,65.1,29.95,NE,44,1.3,3.5,82,0.00,CLR,,0.00,0.0,WeatherDisplay:10.37,2013-08-31 03:17:00,
2013-08-30 22:22:00,71.0,65.2,29.94,NE,36,1.2,2.3,82,0.00,CLR,,0.00,0.0,WeatherDisplay:10.37,2013-08-31 03:22:00,
2013-08-30 22:27:00,71.2,65.1,29.95,NE,36,0.0,2.3,81,0.00,CLR,,0.00,0.0,WeatherDisplay:10.37,2013-08-31 03:27:00,
2013-08-30 22:32:00,71.3,64.8,29.95,NE,35,0.0,0.0,80,0.00,CLR,,0.00,0.0,WeatherDisplay:10.37,2013-08-31 03:32:00,
2013-08-30 22:37:00,71.4,64.5,29.95,NE,39,0.3,1.2,79,0.00,CLR,,0.00,0.0,WeatherDisplay:10.37,2013-08-31 03:37:00,
2013-08-30 22:42:00,71.5,64.6,29.95,NE,36,0.1,1.2,79,0.00,CLR,,0.00,0.0,WeatherDisplay:10.37,2013-08-31 03:42:00,
2013-08-30 22:47:00,71.2,64.7,29.95,NE,34,0.2,1.2,80,0.00,CLR,,0.00,0.0,WeatherDisplay:10.37,2013-08-31 03:47:00,
2013-08-30 22:52:00,70.9,64.4,29.95,NE,34,0.0,0.0,80,0.00,CLR,,0.00,0.0,WeatherDisplay:10.37,2013-08-31 03:52:00,
2013-08-30 22:57:00,70.7,64.6,29.95,NE,34,0.0,1.0,81,0.00,CLR,,0.00,0.0,WeatherDisplay:10.37,2013-08-31 03:57:00,
2013-08-30 23:01:00,70.6,64.5,29.95,NE,36,1.0,2.3,81,0.00,CLR,,0.00,0.0,WeatherDisplay:10.37,2013-08-31 04:01:00,
2013-08-30 23:02:00,70.6,64.1,29.95,NE,38,0.5,2.3,80,0.00,CLR,,0.00,0.0,WeatherDisplay:10.37,2013-08-31 04:02:00,
2013-08-30 23:05:00,70.6,64.1,29.95,NE,38,0.0,1.2,80,0.00,CLR,,0.00,0.0,WeatherDisplay:10.37,2013-08-31 04:05:00,
2013-08-30 23:07:00,70.5,64.4,29.95,NE,38,0.0,0.0,81,0.00,CLR,,0.00,0.0,WeatherDisplay:10.37,2013-08-31 04:07:00,
2013-08-30 23:12:00,70.2,64.1,29.95,NE,38,0.0,0.0,81,0.00,CLR,,0.00,0.0,WeatherDisplay:10.37,2013-08-31 04:12:00,
2013-08-30 23:16:00,70.1,64.0,29.95,NE,36,0.0,1.2,81,0.00,CLR,,0.00,0.0,WeatherDisplay:10.37,2013-08-31 04:16:00,
2013-08-30 23:21:00,70.1,64.0,29.95,NE,37,0.0,1.2,81,0.00,CLR,,0.00,0.0,WeatherDisplay:10.37,2013-08-31 04:21:00,
2013-08-30 23:26:00,69.9,63.8,29.95,NE,37,0.0,0.0,81,0.00,CLR,,0.00,0.0,WeatherDisplay:10.37,2013-08-31 04:26:00,
2013-08-30 23:31:00,69.8,63.7,29.95,NE,38,0.1,1.0,81,0.00,CLR,,0.00,0.0,WeatherDisplay:10.37,2013-08-31 04:31:00,
2013-08-30 23:32:00,69.7,63.6,29.95,NE,38,0.0,0.0,81,0.00,CLR,,0.00,0.0,WeatherDisplay:10.37,2013-08-31 04:32:00,
2013-08-30 23:37:00,69.5,63.8,29.94,NE,38,0.0,0.0,82,0.00,CLR,,0.00,0.0,WeatherDisplay:10.37,2013-08-31 04:37:00,
2013-08-30 23:42:00,69.3,63.6,29.94,NE,36,0.2,1.2,82,0.00,CLR,,0.00,0.0,WeatherDisplay:10.37,2013-08-31 04:42:00,
2013-08-30 23:47:00,69.3,63.6,29.95,NE,36,0.0,1.2,82,0.00,CLR,,0.00,0.0,WeatherDisplay:10.37,2013-08-31 04:47:00,
2013-08-30 23:52:00,69.1,63.4,29.95,NE,36,0.0,0.0,82,0.00,CLR,,0.00,0.0,WeatherDisplay:10.37,2013-08-31 04:52:00,
2013-08-30 23:57:00,68.9,63.2,29.95,NE,36,0.0,0.0,82,0.00,CLR,,0.00,0.0,WeatherDisplay:10.37,2013-08-31 04:57:00,